Santos Dumont Airport
SBRJ : rendu visible

Aérodrome :











RETROUVEZ-NOUS SUR...

 
LOGIN :

S'inscrire | Disclaimer

   EN    FR    IT 

 









Légende :    VFR   VFR Marginal   IFR   IFR Intensif   IFR Très Intensif
Visi : 
Plafond : 
>= 8 km
>= 3000ft
5 à 8 km
1000 à 3000 ft
1500m à 5 km
500 à 1000 ft
800 à 1500m
200 à 500 ft
< 800m
< 200 ft
Symboles :   Orages  Brouillard  Fortes neiges  Fortes précipitations  Vent > 20 kt






- Altitude de l'aérodrome : 11 ft
- Code IATA : SDU


SBRJ - Santos Dumont

DERNIER METAR :
  • 301100Z 01004KT CAVOK 27/22 Q1012

METARs EXPIRÉS :
  • 301000Z 36006KT CAVOK 26/22 Q1012
  • 300900Z 34004KT CAVOK 25/21 Q1011
  • 300850Z 35004KT CAVOK 25/21 Q1011

TAF TAF SBRJ
Valide du 30 à 06h jusqu'au 30 à 18h UTC


300300Z 3006/3018 36005KT 9999 FEW020 TN24/3009Z TX31/3017Z
BECMG 3012/3014 15010KT FEW025 RMK PHD
FIR SBCW / Amérique du Sud



MET'MAP, la Météo Aéronautique d'un coup d'oeil ! - Copyright ORBIFLY Décembre 2007 - Disclaimer

ORBIFLY MET'MAP TEAM :

Programmation & Développement : Alexandra Zaïnal
Sur une idée originale de : Baudouin d'Aumeries
Assistance à la programmation : Marc-Olivier Méhu
Soutien technique & logistique : Manuel Goepfert

Contact : metmap@orbifly.com




SOURCES & CREDITS :

   NOAA       Earth
Advisory